createdAt,value
2019-04-23T00:02:16.611Z,44.44
2019-04-23T00:04:35.475Z,44.38
2019-04-23T00:07:32.187Z,44.66
2019-04-23T00:09:46.782Z,45.00
2019-04-23T00:12:23.787Z,45.04
2019-04-23T00:14:55.237Z,44.79
2019-04-23T00:17:26.789Z,45.04
2019-04-23T00:19:47.327Z,45.03
2019-04-23T00:22:26.525Z,45.49
2019-04-23T00:27:35.783Z,45.46
2019-04-23T00:30:03.941Z,45.49
2019-04-23T00:32:37.923Z,45.47
2019-04-23T00:35:05.997Z,45.99
2019-04-23T00:37:35.587Z,45.90
2019-04-23T00:40:03.155Z,46.35
2019-04-23T00:42:41.488Z,46.62
2019-04-23T00:45:07.195Z,46.78
2019-04-23T00:52:38.898Z,47.15
2019-04-23T00:55:14.842Z,46.85
2019-04-23T00:57:40.610Z,47.01
2019-04-23T01:00:24.539Z,47.13
2019-04-23T01:02:47.432Z,47.44
2019-04-23T01:05:18.715Z,47.46
2019-04-23T01:07:45.193Z,47.98
2019-04-23T01:10:25.512Z,47.94
2019-04-23T01:12:51.263Z,48.31
2019-04-23T01:15:26.076Z,48.52
2019-04-23T01:17:57.648Z,48.41
2019-04-23T01:20:21.060Z,48.41
2019-04-23T01:22:35.737Z,48.61
2019-04-23T01:25:13.582Z,49.08
2019-04-23T01:28:04.447Z,49.04
2019-04-23T01:30:38.722Z,49.36
2019-04-23T01:33:05.916Z,50.02
2019-04-23T01:35:36.351Z,49.84
2019-04-23T01:38:06.147Z,50.15
2019-04-23T01:40:36.672Z,50.12
2019-04-23T01:43:07.894Z,50.12
2019-04-23T01:45:32.695Z,50.58
2019-04-23T01:48:04.678Z,50.72
2019-04-23T01:50:50.085Z,50.47
2019-04-23T01:55:46.543Z,50.89
2019-04-23T01:58:32.245Z,50.87
2019-04-23T02:00:47.807Z,51.08
2019-04-23T02:05:48.319Z,51.19
2019-04-23T02:08:32.025Z,51.57
2019-04-23T02:11:01.554Z,51.63
2019-04-23T02:13:24.895Z,51.57
2019-04-23T02:15:47.433Z,51.82
2019-04-23T02:18:20.590Z,52.00
2019-04-23T02:20:55.536Z,52.00
2019-04-23T02:23:31.281Z,52.28
2019-04-23T02:25:55.533Z,52.51
2019-04-23T02:28:32.665Z,52.86
2019-04-23T02:36:07.681Z,53.29
2019-04-23T02:41:12.939Z,53.07
2019-04-23T02:43:26.534Z,53.34
2019-04-23T02:48:43.830Z,54.38
2019-04-23T02:51:10.805Z,54.38
2019-04-23T02:58:42.191Z,54.73
2019-04-23T03:01:25.744Z,54.67
2019-04-23T03:03:51.311Z,54.48
2019-04-23T03:06:27.401Z,54.93
2019-04-23T03:14:00.398Z,54.75
2019-04-23T03:16:49.927Z,55.27
2019-04-23T03:19:08.294Z,55.38
2019-04-23T03:24:28.450Z,55.19
2019-04-23T03:35:16.299Z,55.97
2019-04-23T03:39:17.781Z,56.06
2019-04-23T03:41:54.472Z,56.46
2019-04-23T03:44:30.031Z,56.53
2019-04-23T03:46:57.186Z,56.65
2019-04-23T03:49:19.696Z,56.73
2019-04-23T03:54:33.787Z,57.22
2019-04-23T04:09:34.130Z,57.48
2019-04-23T04:11:55.118Z,57.61
2019-04-23T04:14:44.826Z,57.87
2019-04-23T04:17:03.660Z,57.99
2019-04-23T04:24:36.813Z,58.69
2019-04-23T04:29:44.410Z,58.84
2019-04-23T04:32:02.638Z,59.12
2019-04-23T04:42:09.528Z,59.79
2019-04-23T04:49:50.900Z,60.38
2019-04-23T04:54:24.204Z,60.72
2019-04-23T04:57:27.871Z,60.93
2019-04-23T04:59:51.236Z,60.59
2019-04-23T05:02:20.506Z,60.88
2019-04-23T05:04:52.533Z,61.08
2019-04-23T05:09:48.444Z,60.45
2019-04-23T05:14:52.592Z,60.17
2019-04-23T05:17:16.834Z,59.43
2019-04-23T05:19:45.861Z,55.88
2019-04-23T05:22:16.590Z,53.02
2019-04-23T05:24:39.864Z,50.93
2019-04-23T05:27:10.236Z,51.67
2019-04-23T05:29:46.612Z,51.52
2019-04-23T05:32:14.898Z,51.41
2019-04-23T05:34:40.229Z,50.49
2019-04-23T05:37:11.566Z,50.59
2019-04-23T05:39:49.904Z,49.69
2019-04-23T05:42:19.918Z,49.57
2019-04-23T05:44:50.295Z,50.59
2019-04-23T05:47:20.367Z,50.53
2019-04-23T05:49:57.020Z,50.06
2019-04-23T05:52:27.894Z,49.38
2019-04-23T05:57:14.346Z,50.48
2019-04-23T05:59:49.914Z,50.09
2019-04-23T06:02:20.369Z,51.66
2019-04-23T06:04:49.622Z,51.70
2019-04-23T06:10:02.876Z,50.17
2019-04-23T06:12:26.597Z,49.95
2019-04-23T06:14:57.657Z,48.97
2019-04-23T06:17:25.425Z,47.47
2019-04-23T06:20:07.853Z,48.11
2019-04-23T06:25:00.965Z,50.06
2019-04-23T06:29:58.880Z,50.48
2019-04-23T06:32:34.310Z,49.99
2019-04-23T06:34:56.836Z,50.60
2019-04-23T06:40:01.503Z,49.91
2019-04-23T06:42:29.278Z,49.38
2019-04-23T06:44:59.878Z,50.17
2019-04-23T06:52:31.549Z,49.02
2019-04-23T06:55:09.328Z,49.55
2019-04-23T06:57:58.792Z,48.25
2019-04-23T07:00:07.916Z,48.42
2019-04-23T07:02:39.145Z,48.14
2019-04-23T07:05:15.978Z,48.41
2019-04-23T07:10:11.515Z,47.49
2019-04-23T07:12:44.848Z,48.07
2019-04-23T07:15:16.384Z,48.31
2019-04-23T07:17:44.827Z,48.32
2019-04-23T07:20:15.223Z,48.64
2019-04-23T07:22:43.210Z,47.05
2019-04-23T07:25:14.122Z,48.36
2019-04-23T07:27:45.780Z,46.90
2019-04-23T07:35:14.202Z,47.04
2019-04-23T07:37:48.819Z,47.12
2019-04-23T07:42:58.254Z,47.42
2019-04-23T07:48:16.598Z,45.94
2019-04-23T07:53:23.384Z,44.98
2019-04-23T08:00:58.224Z,46.47
2019-04-23T08:03:31.229Z,46.88
2019-04-23T08:05:55.478Z,45.56
2019-04-23T08:08:30.421Z,44.64
2019-04-23T08:13:47.692Z,44.83
2019-04-23T08:16:32.889Z,44.96
2019-04-23T08:24:02.233Z,45.45
2019-04-23T08:26:50.817Z,45.56
2019-04-23T08:32:10.746Z,45.49
2019-04-23T08:34:36.908Z,44.95
2019-04-23T08:39:38.359Z,44.50
2019-04-23T08:44:47.082Z,44.87
2019-04-23T08:49:48.800Z,45.15
2019-04-23T08:52:25.582Z,45.15
2019-04-23T08:57:14.544Z,44.99
2019-04-23T08:59:47.586Z,44.68
2019-04-23T09:02:31.239Z,44.46
2019-04-23T09:05:06.341Z,43.21
2019-04-23T09:09:50.969Z,44.06
2019-04-23T09:12:27.006Z,43.16
2019-04-23T09:14:51.214Z,43.27
2019-04-23T09:17:20.798Z,42.16
2019-04-23T09:20:07.061Z,43.79
2019-04-23T09:25:00.456Z,42.71
2019-04-23T09:30:07.656Z,42.35
2019-04-23T09:32:36.915Z,42.46
2019-04-23T09:35:06.012Z,42.44
2019-04-23T09:37:49.186Z,41.48
2019-04-23T09:40:28.549Z,40.92
2019-04-23T09:42:54.370Z,41.54
2019-04-23T09:45:26.965Z,41.51
2019-04-23T09:50:38.402Z,41.89
2019-04-23T09:53:13.101Z,40.38
2019-04-23T10:00:59.105Z,40.53
2019-04-23T10:03:13.607Z,40.23
2019-04-23T10:05:33.658Z,41.03
2019-04-23T10:08:03.077Z,40.34
2019-04-23T10:10:24.226Z,40.76
2019-04-23T10:13:02.222Z,40.17
2019-04-23T10:15:45.727Z,39.95
2019-04-23T10:18:22.425Z,41.55
2019-04-23T10:20:52.309Z,39.08
2019-04-23T10:23:23.091Z,40.27
2019-04-23T10:25:52.338Z,39.90
2019-04-23T10:28:26.547Z,39.69
2019-04-23T10:30:56.586Z,40.14
2019-04-23T10:33:25.569Z,40.31
2019-04-23T10:36:02.184Z,39.86
2019-04-23T10:38:26.695Z,39.05
2019-04-23T10:40:56.210Z,39.88
2019-04-23T10:43:25.158Z,40.28
2019-04-23T10:46:21.827Z,40.05
2019-04-23T10:49:13.673Z,39.61
2019-04-23T10:54:32.915Z,39.15
2019-04-23T10:56:48.831Z,38.87
2019-04-23T10:59:38.891Z,39.86
2019-04-23T11:07:25.407Z,39.03
2019-04-23T11:12:37.131Z,38.90
2019-04-23T11:17:46.002Z,38.48
2019-04-23T11:20:25.822Z,38.10
2019-04-23T11:22:45.402Z,38.28
2019-04-23T11:30:27.499Z,37.56
2019-04-23T11:35:31.078Z,38.78
2019-04-23T11:38:09.120Z,39.39
2019-04-23T11:40:21.206Z,38.59
2019-04-23T11:50:31.740Z,38.25
2019-04-23T11:52:56.463Z,37.96
2019-04-23T11:55:32.856Z,38.31
2019-04-23T12:00:33.607Z,38.15
2019-04-23T12:02:59.160Z,37.30
2019-04-23T12:05:58.213Z,37.65
2019-04-23T12:08:37.784Z,38.44
2019-04-23T12:14:02.542Z,37.24
2019-04-23T12:16:30.239Z,38.54
2019-04-23T12:19:25.471Z,38.08
2019-04-23T12:21:43.842Z,38.63
2019-04-23T12:24:04.570Z,38.35
2019-04-23T12:26:38.941Z,37.98
2019-04-23T12:29:04.040Z,38.16
2019-04-23T12:31:34.906Z,38.33
2019-04-23T12:36:37.268Z,38.12
2019-04-23T12:39:08.794Z,37.85
2019-04-23T12:41:36.068Z,38.64
2019-04-23T12:44:22.359Z,38.72
2019-04-23T12:46:38.171Z,37.34
2019-04-23T12:49:28.371Z,37.92
2019-04-23T12:51:41.540Z,38.25
2019-04-23T12:54:06.433Z,39.10
2019-04-23T12:56:53.696Z,39.26
2019-04-23T12:59:12.451Z,38.47
2019-04-23T13:01:42.504Z,38.47
2019-04-23T13:04:11.618Z,38.42
2019-04-23T13:06:39.157Z,37.31
2019-04-23T13:09:21.757Z,39.46
2019-04-23T13:11:43.588Z,37.79
2019-04-23T13:14:17.388Z,37.75
2019-04-23T13:16:53.873Z,37.01
2019-04-23T13:19:26.030Z,37.35
2019-04-23T13:22:00.332Z,37.03
2019-04-23T13:24:28.845Z,37.38
2019-04-23T13:27:02.501Z,36.98
2019-04-23T13:29:37.921Z,37.52
2019-04-23T13:31:58.985Z,37.29
2019-04-23T13:34:42.866Z,37.78
2019-04-23T13:37:05.230Z,38.70
2019-04-23T13:39:33.248Z,37.28
2019-04-23T13:42:05.159Z,37.00
2019-04-23T13:44:42.031Z,38.29
2019-04-23T13:47:10.621Z,37.63
2019-04-23T13:49:43.178Z,37.70
2019-04-23T13:52:26.845Z,37.96
2019-04-23T14:02:17.308Z,37.49
2019-04-23T14:04:45.245Z,38.62
2019-04-23T14:07:14.898Z,38.29
2019-04-23T14:10:04.485Z,38.21
2019-04-23T14:12:18.201Z,38.10
2019-04-23T14:19:55.963Z,38.63
2019-04-23T14:22:43.483Z,38.36
2019-04-23T14:25:04.873Z,38.48
2019-04-23T14:32:46.891Z,37.86
2019-04-23T14:35:04.594Z,38.67
2019-04-23T14:37:21.723Z,38.63
2019-04-23T14:40:05.769Z,38.71
2019-04-23T14:42:47.944Z,38.88
2019-04-23T14:45:22.554Z,37.77
2019-04-23T14:50:27.907Z,39.24
2019-04-23T14:52:57.029Z,39.82
2019-04-23T14:58:00.506Z,38.92
2019-04-23T15:08:02.090Z,37.56
2019-04-23T15:10:34.267Z,38.37
2019-04-23T15:13:00.022Z,38.46
2019-04-23T15:15:35.745Z,37.75
2019-04-23T15:18:09.308Z,38.18
2019-04-23T15:20:33.129Z,38.47
2019-04-23T15:23:25.458Z,38.12
2019-04-23T15:30:38.776Z,39.04
2019-04-23T15:33:23.688Z,39.85
2019-04-23T15:40:41.810Z,39.32
2019-04-23T15:45:44.855Z,38.92
2019-04-23T15:48:19.206Z,40.34
2019-04-23T15:50:43.322Z,39.49
2019-04-23T15:53:04.782Z,39.39
2019-04-23T15:58:29.981Z,39.77
2019-04-23T16:00:48.226Z,39.74
2019-04-23T16:02:51.482Z,40.58
2019-04-23T16:05:21.681Z,40.18
2019-04-23T16:08:11.469Z,39.71
2019-04-23T16:10:54.538Z,40.68
2019-04-23T16:13:18.385Z,40.35
2019-04-23T16:15:54.333Z,40.57
2019-04-23T16:18:35.229Z,40.53
2019-04-23T16:21:04.849Z,39.89
2019-04-23T16:23:31.623Z,40.69
2019-04-23T16:25:58.521Z,39.96
2019-04-23T16:28:50.432Z,40.92
2019-04-23T16:31:07.582Z,40.53
2019-04-23T16:33:31.987Z,40.90
2019-04-23T16:38:38.285Z,41.38
2019-04-23T16:41:09.907Z,41.06
2019-04-23T16:43:35.401Z,41.27
2019-04-23T16:48:47.840Z,41.22
2019-04-23T16:51:17.983Z,42.62
2019-04-23T16:53:56.348Z,42.26
2019-04-23T17:01:22.904Z,42.34
2019-04-23T17:06:24.746Z,42.42
2019-04-23T17:09:15.698Z,42.43
2019-04-23T17:11:42.572Z,42.08
2019-04-23T17:14:13.552Z,43.08
2019-04-23T17:16:41.964Z,42.89
2019-04-23T17:21:53.317Z,43.34
2019-04-23T17:27:08.220Z,42.49
2019-04-23T17:32:16.586Z,43.84
2019-04-23T17:35:11.629Z,43.58
2019-04-23T17:37:37.355Z,43.71
2019-04-23T17:40:34.217Z,43.75
2019-04-23T17:43:06.240Z,43.75
2019-04-23T17:45:38.527Z,43.07
2019-04-23T17:48:17.717Z,43.43
2019-04-23T17:51:00.568Z,43.50
2019-04-23T17:53:25.288Z,44.28
2019-04-23T17:56:26.348Z,44.09
2019-04-23T18:01:22.216Z,44.55
2019-04-23T18:03:57.485Z,44.62
2019-04-23T18:06:32.155Z,44.40
2019-04-23T18:09:08.404Z,44.68
2019-04-23T18:11:50.111Z,44.22
2019-04-23T18:14:08.305Z,44.41
2019-04-23T18:19:12.367Z,45.15
2019-04-23T18:24:23.069Z,45.68
2019-04-23T18:26:51.618Z,45.80
2019-04-23T18:29:36.440Z,46.32
2019-04-23T18:32:16.996Z,46.46
2019-04-23T18:34:59.698Z,46.46
2019-04-23T18:37:19.302Z,46.58
2019-04-23T18:39:47.096Z,47.67
2019-04-23T18:42:22.370Z,46.99
2019-04-23T18:44:48.486Z,47.49
2019-04-23T18:52:29.573Z,48.37
2019-04-23T18:54:48.961Z,48.28
2019-04-23T18:57:27.843Z,48.76
2019-04-23T18:59:55.104Z,48.60
2019-04-23T19:02:24.080Z,48.94
2019-04-23T19:05:17.956Z,48.80
2019-04-23T19:10:36.173Z,49.26
2019-04-23T19:13:07.055Z,49.43
2019-04-23T19:15:38.114Z,49.46
2019-04-23T19:18:06.221Z,49.88
2019-04-23T19:25:38.646Z,50.12
2019-04-23T19:28:30.747Z,50.17
2019-04-23T19:31:05.340Z,49.90
2019-04-23T19:33:35.254Z,50.11
2019-04-23T19:38:33.354Z,50.52
2019-04-23T19:43:49.495Z,51.05
2019-04-23T19:48:42.350Z,50.66
2019-04-23T19:58:46.766Z,51.21
2019-04-23T20:06:32.813Z,51.40
2019-04-23T20:11:09.586Z,51.64
2019-04-23T20:16:15.779Z,52.25
2019-04-23T20:21:03.758Z,52.91
2019-04-23T20:29:02.507Z,52.59
2019-04-23T20:33:20.928Z,53.00
2019-04-23T20:34:11.486Z,52.96
2019-04-23T20:39:17.269Z,52.64
2019-04-23T20:47:06.365Z,53.43
2019-04-23T20:49:38.815Z,53.72
2019-04-23T20:57:30.570Z,54.00
2019-04-23T20:59:58.201Z,54.27
2019-04-23T21:03:08.257Z,54.13
2019-04-23T21:07:54.440Z,54.65
2019-04-23T21:10:27.761Z,54.67
2019-04-23T21:13:02.720Z,54.60
2019-04-23T21:15:18.351Z,54.36
2019-04-23T21:22:57.126Z,54.99
2019-04-23T21:25:14.816Z,55.05
2019-04-23T21:27:44.909Z,55.38
2019-04-23T21:30:58.537Z,55.21
2019-04-23T21:33:11.851Z,54.90
2019-04-23T21:49:16.522Z,55.87
2019-04-23T21:53:58.680Z,56.33
2019-04-23T21:59:17.599Z,56.79
2019-04-23T22:01:44.976Z,56.86
2019-04-23T22:04:25.024Z,56.59
2019-04-23T22:11:56.994Z,57.29
2019-04-23T22:14:22.088Z,57.28
2019-04-23T22:19:26.707Z,57.67
2019-04-23T22:21:54.436Z,57.79
2019-04-23T22:24:12.309Z,58.00
2019-04-23T22:34:22.255Z,58.67
2019-04-23T22:37:12.734Z,58.88
2019-04-23T22:39:39.882Z,59.29
2019-04-23T22:42:01.450Z,58.55
2019-04-23T22:44:37.315Z,59.13
2019-04-23T22:54:32.489Z,59.43
2019-04-23T22:59:48.706Z,59.70
2019-04-23T23:02:29.005Z,59.89
2019-04-23T23:04:59.794Z,60.48
2019-04-23T23:07:22.365Z,60.63
2019-04-23T23:09:56.448Z,60.07
2019-04-23T23:12:21.341Z,60.52
2019-04-23T23:14:54.760Z,60.86
2019-04-23T23:17:20.623Z,60.73
2019-04-23T23:20:03.702Z,61.21
2019-04-23T23:22:20.109Z,61.54
2019-04-23T23:24:57.913Z,60.92
2019-04-23T23:27:25.151Z,61.39
2019-04-23T23:32:31.417Z,61.57
2019-04-23T23:35:08.219Z,61.36
2019-04-23T23:37:36.817Z,60.85
2019-04-23T23:40:15.333Z,61.25
2019-04-23T23:42:42.477Z,61.58
2019-04-23T23:45:21.623Z,61.75
2019-04-23T23:47:39.451Z,61.64
2019-04-23T23:52:51.664Z,61.67
2019-04-23T23:57:41.546Z,60.81
